Time;durP1;ratioP1;P1;durP2;ratioP2;P2;SDS_P1;SDS_P2;PMS_P1;PMS_P2;Temp;Humidity;BMP_temperature;BMP_pressure;BME280_temperature;BME280_humidity;BME280_pressure;Samples;Min_cycle;Max_cycle;Signal;HPM_P1;HPM_P2
2023/08/05 00:01:19;;;;;;;;;;;16.60;99.90;;;;;;4991578;28;19945;-62
2023/08/05 00:03:45;;;;;;;;;;;16.60;99.90;;;;;;4991383;28;20000;-61
2023/08/05 00:06:12;;;;;;;;;;;16.60;99.90;;;;;;4991526;28;19944;-61
2023/08/05 00:08:41;;;;;;;;;;;16.60;99.90;;;;;;4991622;28;19921;-62
2023/08/05 00:11:07;;;;;;;;;;;16.50;99.90;;;;;;4991290;28;19972;-61
2023/08/05 00:13:34;;;;;;;;;;;16.50;99.90;;;;;;4991150;28;19953;-62
2023/08/05 00:16:01;;;;;;;;;;;16.50;99.90;;;;;;4979433;28;19921;-62
2023/08/05 00:18:28;;;;;;;;;;;16.50;99.90;;;;;;4991376;28;19922;-61
2023/08/05 00:20:55;;;;;;;;;;;16.50;99.90;;;;;;4990987;28;19922;-62
2023/08/05 00:23:22;;;;;;;;;;;16.50;99.90;;;;;;4991362;28;20033;-62
2023/08/05 00:25:48;;;;;;;;;;;16.50;99.90;;;;;;4991072;28;19922;-61
2023/08/05 00:28:15;;;;;;;;;;;16.40;99.90;;;;;;4991431;28;19926;-62
2023/08/05 00:30:42;;;;;;;;;;;16.50;99.90;;;;;;4991141;28;19976;-61
2023/08/05 00:33:08;;;;;;;;;;;16.50;99.90;;;;;;4990892;28;19965;-62
2023/08/05 00:35:35;;;;;;;;;;;16.50;99.90;;;;;;4990920;28;19922;-62
2023/08/05 00:38:01;;;;;;;;;;;16.40;99.90;;;;;;4990998;28;19921;-62
2023/08/05 00:40:28;;;;;;;;;;;16.40;99.90;;;;;;4990913;28;19922;-61
2023/08/05 00:42:55;;;;;;;;;;;16.40;99.90;;;;;;4990846;28;19921;-61
2023/08/05 00:45:21;;;;;;;;;;;16.40;99.90;;;;;;4990481;28;20439;-62
2023/08/05 00:47:48;;;;;;;;;;;16.40;99.90;;;;;;4989381;28;19977;-61
2023/08/05 00:50:15;;;;;;;;;;;16.40;99.90;;;;;;4989978;28;19975;-60
2023/08/05 00:52:41;;;;;;;;;;;16.40;99.90;;;;;;4989220;28;19934;-61
2023/08/05 00:55:08;;;;;;;;;;;16.40;99.90;;;;;;4989559;28;19977;-61
2023/08/05 00:57:35;;;;;;;;;;;16.40;99.90;;;;;;4990302;28;19922;-60
2023/08/05 01:00:02;;;;;;;;;;;16.30;99.90;;;;;;4990846;28;19925;-61
2023/08/05 01:02:29;;;;;;;;;;;16.30;99.90;;;;;;4990596;28;19968;-61
2023/08/05 01:04:56;;;;;;;;;;;16.30;99.90;;;;;;4990737;28;19943;-60
2023/08/05 01:07:22;;;;;;;;;;;16.30;99.90;;;;;;4990195;28;19952;-61
2023/08/05 01:09:49;;;;;;;;;;;16.40;99.90;;;;;;4985581;28;19976;-62
2023/08/05 01:12:16;;;;;;;;;;;16.40;99.90;;;;;;4990679;28;20297;-62
2023/08/05 01:14:42;;;;;;;;;;;16.30;99.90;;;;;;4988521;28;20039;-60
2023/08/05 01:17:09;;;;;;;;;;;16.30;99.90;;;;;;4990618;28;19944;-61
2023/08/05 01:19:36;;;;;;;;;;;16.30;99.90;;;;;;4990013;28;19963;-61
2023/08/05 01:22:06;;;;;;;;;;;16.30;99.90;;;;;;4990474;28;19922;-62
2023/08/05 01:24:52;;;;;;;;;;;16.40;99.90;;;;;;4989663;28;19922;-63
2023/08/05 01:27:18;;;;;;;;;;;16.30;99.90;;;;;;4979777;28;19921;-60
2023/08/05 01:29:45;;;;;;;;;;;16.30;99.90;;;;;;4989753;28;19926;-61
2023/08/05 01:32:12;;;;;;;;;;;16.30;99.90;;;;;;4990196;28;19984;-61
2023/08/05 01:34:39;;;;;;;;;;;16.30;99.90;;;;;;4988114;28;19921;-61
2023/08/05 01:37:06;;;;;;;;;;;16.20;99.90;;;;;;4988739;28;20435;-62
2023/08/05 01:39:32;;;;;;;;;;;16.20;99.90;;;;;;4989791;28;19929;-61
2023/08/05 01:41:59;;;;;;;;;;;16.20;99.90;;;;;;4990066;28;19926;-61
2023/08/05 01:44:26;;;;;;;;;;;16.10;99.90;;;;;;4988992;28;19926;-61
2023/08/05 01:46:52;;;;;;;;;;;16.10;99.90;;;;;;4990082;28;19922;-61
2023/08/05 01:49:19;;;;;;;;;;;16.10;99.90;;;;;;4989682;28;19988;-61
2023/08/05 01:51:46;;;;;;;;;;;16.10;99.90;;;;;;4990394;28;19922;-62
2023/08/05 01:54:13;;;;;;;;;;;16.00;99.90;;;;;;4989125;28;19925;-61
2023/08/05 01:56:39;;;;;;;;;;;16.00;99.90;;;;;;4989909;28;20332;-62
2023/08/05 01:59:06;;;;;;;;;;;16.10;99.90;;;;;;4989377;28;19984;-62
2023/08/05 02:01:43;;;;;;;;;;;16.00;99.90;;;;;;4989504;28;19921;-61
2023/08/05 02:04:09;;;;;;;;;;;16.00;99.90;;;;;;4989522;28;19928;-62
2023/08/05 02:06:36;;;;;;;;;;;16.00;99.90;;;;;;4989124;28;19922;-61
2023/08/05 02:09:03;;;;;;;;;;;16.00;99.90;;;;;;4989279;28;20501;-62
2023/08/05 02:11:30;;;;;;;;;;;16.00;99.90;;;;;;4989308;28;19922;-62
2023/08/05 02:13:56;;;;;;;;;;;16.00;99.90;;;;;;4987706;28;19972;-61
2023/08/05 02:16:23;;;;;;;;;;;16.00;99.90;;;;;;4988641;28;19964;-62
2023/08/05 02:18:50;;;;;;;;;;;16.00;99.90;;;;;;4988542;28;19932;-62
2023/08/05 02:21:17;;;;;;;;;;;16.00;99.90;;;;;;4988584;28;20289;-62
2023/08/05 02:23:43;;;;;;;;;;;16.00;99.90;;;;;;4989342;28;19957;-62
2023/08/05 02:26:10;;;;;;;;;;;15.90;99.90;;;;;;4989210;28;19922;-61
2023/08/05 02:28:37;;;;;;;;;;;15.90;99.90;;;;;;4989093;28;19925;-62
2023/08/05 02:31:03;;;;;;;;;;;15.90;99.90;;;;;;4988842;28;19996;-62
2023/08/05 02:33:31;;;;;;;;;;;15.90;99.90;;;;;;4988994;28;19973;-61
2023/08/05 02:35:58;;;;;;;;;;;15.90;99.90;;;;;;4988877;28;19922;-61
2023/08/05 02:38:24;;;;;;;;;;;15.80;99.90;;;;;;4989676;28;19953;-61
2023/08/05 02:40:54;;;;;;;;;;;15.80;99.90;;;;;;4988812;28;19957;-61
2023/08/05 02:43:21;;;;;;;;;;;15.90;99.90;;;;;;4989148;28;19925;-61
2023/08/05 02:45:54;;;;;;;;;;;15.90;99.90;;;;;;4988596;28;19974;-61
2023/08/05 02:48:22;;;;;;;;;;;15.80;99.90;;;;;;4988770;28;19922;-62
2023/08/05 02:50:49;;;;;;;;;;;15.90;99.90;;;;;;4989038;28;19941;-62
2023/08/05 02:53:15;;;;;;;;;;;15.90;99.90;;;;;;4985646;28;20344;-62
2023/08/05 02:55:42;;;;;;;;;;;15.90;99.90;;;;;;4988809;28;20012;-61
2023/08/05 02:58:09;;;;;;;;;;;15.90;99.90;;;;;;4988712;28;19930;-62
2023/08/05 03:00:36;;;;;;;;;;;15.90;99.90;;;;;;4988692;28;19933;-64
2023/08/05 03:03:02;;;;;;;;;;;15.90;99.90;;;;;;4988762;28;19976;-62
2023/08/05 03:05:29;;;;;;;;;;;15.80;99.90;;;;;;4989197;28;19925;-61
2023/08/05 03:07:56;;;;;;;;;;;15.80;99.90;;;;;;4988512;28;20437;-62
2023/08/05 03:10:23;;;;;;;;;;;15.80;99.90;;;;;;4988470;28;19964;-60
2023/08/05 03:12:49;;;;;;;;;;;15.90;99.90;;;;;;4988495;28;19922;-61
2023/08/05 03:15:16;;;;;;;;;;;15.80;99.90;;;;;;4988591;28;19972;-63
2023/08/05 03:17:43;;;;;;;;;;;15.80;99.90;;;;;;4988465;28;19921;-60
2023/08/05 03:20:25;;;;;;;;;;;15.80;99.90;;;;;;4988812;28;19983;-61
2023/08/05 03:22:53;;;;;;;;;;;15.80;99.90;;;;;;4991995;28;20296;-60
2023/08/05 03:25:21;;;;;;;;;;;15.80;99.90;;;;;;4992265;28;19972;-61
2023/08/05 03:27:48;;;;;;;;;;;15.70;99.90;;;;;;4991680;28;19922;-60
2023/08/05 03:30:15;;;;;;;;;;;15.70;99.90;;;;;;4992140;28;19921;-61
2023/08/05 03:32:42;;;;;;;;;;;15.70;99.90;;;;;;4991666;28;19925;-62
2023/08/05 03:35:09;;;;;;;;;;;15.70;99.90;;;;;;4992146;28;19929;-62
2023/08/05 03:37:35;;;;;;;;;;;15.70;99.90;;;;;;4991762;28;19925;-61
2023/08/05 03:40:02;;;;;;;;;;;15.60;99.90;;;;;;4991984;28;19968;-61
2023/08/05 03:42:29;;;;;;;;;;;15.60;99.90;;;;;;4991538;28;20005;-61
2023/08/05 03:44:56;;;;;;;;;;;15.50;99.90;;;;;;4992301;28;19921;-61
2023/08/05 03:47:22;;;;;;;;;;;15.60;99.90;;;;;;4991598;28;19925;-61
2023/08/05 03:49:49;;;;;;;;;;;15.60;99.90;;;;;;4991831;28;19944;-61
2023/08/05 03:52:16;;;;;;;;;;;15.60;99.90;;;;;;4992079;28;19988;-62
2023/08/05 03:54:43;;;;;;;;;;;15.60;99.90;;;;;;4991318;28;19973;-61
2023/08/05 03:57:09;;;;;;;;;;;15.50;99.90;;;;;;4991500;28;19980;-61
2023/08/05 03:59:36;;;;;;;;;;;15.50;99.90;;;;;;4991750;28;19984;-61
2023/08/05 04:02:03;;;;;;;;;;;15.50;99.90;;;;;;4991750;28;19921;-60
2023/08/05 04:04:30;;;;;;;;;;;15.40;99.90;;;;;;4988524;28;19921;-60
2023/08/05 04:06:56;;;;;;;;;;;15.40;99.90;;;;;;4978805;28;19969;-60
2023/08/05 04:09:24;;;;;;;;;;;15.50;99.90;;;;;;4984347;28;19996;-60
2023/08/05 04:11:53;;;;;;;;;;;15.40;99.90;;;;;;4991257;28;20012;-60
2023/08/05 04:14:20;;;;;;;;;;;15.40;99.90;;;;;;4991345;28;19922;-60
2023/08/05 04:16:47;;;;;;;;;;;15.40;99.90;;;;;;4990581;28;19925;-61
2023/08/05 04:19:15;;;;;;;;;;;15.40;99.90;;;;;;4989382;28;20076;-61
2023/08/05 04:21:46;;;;;;;;;;;15.40;99.90;;;;;;4990650;28;19996;-60
2023/08/05 04:24:13;;;;;;;;;;;15.30;99.90;;;;;;4990984;28;20345;-60
2023/08/05 04:26:40;;;;;;;;;;;15.30;99.90;;;;;;4991081;28;19929;-61
2023/08/05 04:29:09;;;;;;;;;;;15.30;99.90;;;;;;4990607;28;19972;-60
2023/08/05 04:31:38;;;;;;;;;;;15.30;99.90;;;;;;4990655;28;19921;-61
2023/08/05 04:34:05;;;;;;;;;;;15.20;99.90;;;;;;4991219;28;19921;-61
2023/08/05 04:36:31;;;;;;;;;;;15.20;99.90;;;;;;4990157;28;19976;-62
2023/08/05 04:39:02;;;;;;;;;;;15.10;99.90;;;;;;4990829;28;20344;-60
2023/08/05 04:41:28;;;;;;;;;;;15.00;99.90;;;;;;4989037;28;19929;-60
2023/08/05 04:43:56;;;;;;;;;;;15.00;99.90;;;;;;4990997;28;20013;-60
2023/08/05 04:46:23;;;;;;;;;;;15.00;99.90;;;;;;4990255;28;19937;-60
2023/08/05 04:48:50;;;;;;;;;;;15.00;99.90;;;;;;4990259;28;19968;-60
2023/08/05 04:51:16;;;;;;;;;;;14.90;99.90;;;;;;4990244;28;19925;-60
2023/08/05 04:53:43;;;;;;;;;;;14.90;99.90;;;;;;4991975;28;19928;-60
2023/08/05 04:56:10;;;;;;;;;;;14.90;99.90;;;;;;4990323;28;19929;-60
2023/08/05 04:58:37;;;;;;;;;;;14.90;99.90;;;;;;4990416;28;19928;-60
2023/08/05 05:01:04;;;;;;;;;;;14.90;99.90;;;;;;4988978;28;19922;-60
2023/08/05 05:03:31;;;;;;;;;;;14.90;99.90;;;;;;4990525;28;19921;-60
2023/08/05 05:05:58;;;;;;;;;;;14.90;99.90;;;;;;4990045;28;19921;-60
2023/08/05 05:08:24;;;;;;;;;;;14.90;99.90;;;;;;4990403;28;20638;-61
2023/08/05 05:10:51;;;;;;;;;;;15.00;99.90;;;;;;4990278;28;19929;-60
2023/08/05 05:13:18;;;;;;;;;;;15.00;99.90;;;;;;4990290;28;19922;-60
2023/08/05 05:15:46;;;;;;;;;;;15.00;99.90;;;;;;4989552;28;20011;-60
2023/08/05 05:18:13;;;;;;;;;;;15.00;99.90;;;;;;4990400;28;19925;-60
2023/08/05 05:20:40;;;;;;;;;;;15.00;99.90;;;;;;4990008;28;19921;-60
2023/08/05 05:23:06;;;;;;;;;;;15.00;99.90;;;;;;4990100;28;19952;-60
2023/08/05 05:25:33;;;;;;;;;;;15.00;99.90;;;;;;4990393;28;19968;-60
2023/08/05 05:28:00;;;;;;;;;;;15.00;99.90;;;;;;4990645;28;19922;-60
2023/08/05 05:30:26;;;;;;;;;;;15.00;99.90;;;;;;4990220;28;19960;-60
2023/08/05 05:32:53;;;;;;;;;;;15.00;99.90;;;;;;4988112;28;19921;-60
2023/08/05 05:35:20;;;;;;;;;;;15.00;99.90;;;;;;4990172;28;19949;-60
2023/08/05 05:37:47;;;;;;;;;;;15.00;99.90;;;;;;4989182;28;20328;-61
2023/08/05 05:40:13;;;;;;;;;;;15.10;99.90;;;;;;4989889;28;19969;-61
2023/08/05 05:42:41;;;;;;;;;;;15.20;99.90;;;;;;4989172;28;20392;-60
2023/08/05 05:45:08;;;;;;;;;;;15.20;99.90;;;;;;4989441;28;19921;-61
2023/08/05 05:47:35;;;;;;;;;;;15.20;99.90;;;;;;4991713;28;19921;-60
2023/08/05 05:50:03;;;;;;;;;;;15.30;99.90;;;;;;4989876;28;20331;-60
2023/08/05 05:52:30;;;;;;;;;;;15.30;99.90;;;;;;4989092;28;19926;-61
2023/08/05 05:54:56;;;;;;;;;;;15.30;99.90;;;;;;4989930;28;19945;-60
2023/08/05 05:57:23;;;;;;;;;;;15.20;99.90;;;;;;4992314;28;19985;-61
2023/08/05 05:59:50;;;;;;;;;;;15.10;99.90;;;;;;4989417;28;19972;-60
2023/08/05 06:02:16;;;;;;;;;;;15.10;99.90;;;;;;4989003;28;20438;-60
2023/08/05 06:04:47;;;;;;;;;;;15.00;99.90;;;;;;4989638;28;20369;-61
2023/08/05 06:07:14;;;;;;;;;;;15.00;99.90;;;;;;4989059;28;19922;-60
2023/08/05 06:09:40;;;;;;;;;;;15.00;99.90;;;;;;4988186;28;19921;-60
2023/08/05 06:12:10;;;;;;;;;;;15.10;99.90;;;;;;4988794;28;19926;-60
2023/08/05 06:14:37;;;;;;;;;;;15.00;99.90;;;;;;4990013;28;19976;-61
2023/08/05 06:17:03;;;;;;;;;;;15.00;99.90;;;;;;5004323;28;20017;-60
2023/08/05 06:19:30;;;;;;;;;;;15.10;99.90;;;;;;4989059;28;19957;-60
2023/08/05 06:21:57;;;;;;;;;;;15.10;99.90;;;;;;4989522;28;19921;-60
2023/08/05 06:24:24;;;;;;;;;;;15.10;99.90;;;;;;4989127;28;20340;-60
2023/08/05 06:26:50;;;;;;;;;;;15.10;99.90;;;;;;4987772;28;20388;-61
2023/08/05 06:29:17;;;;;;;;;;;15.10;99.90;;;;;;4990659;28;19928;-60
2023/08/05 06:31:44;;;;;;;;;;;15.10;99.90;;;;;;4988831;28;19921;-60
2023/08/05 06:34:11;;;;;;;;;;;15.10;99.90;;;;;;4986172;28;19984;-60
2023/08/05 06:36:37;;;;;;;;;;;15.10;99.90;;;;;;4986134;28;19976;-60
2023/08/05 06:39:04;;;;;;;;;;;15.10;99.90;;;;;;4985925;28;20125;-60
2023/08/05 06:41:31;;;;;;;;;;;15.00;99.90;;;;;;4985711;28;19925;-60
2023/08/05 06:43:58;;;;;;;;;;;15.10;99.90;;;;;;4986180;28;19926;-60
2023/08/05 06:46:24;;;;;;;;;;;15.10;99.90;;;;;;4986156;28;19921;-60
2023/08/05 06:48:51;;;;;;;;;;;15.10;99.90;;;;;;4985482;28;19984;-61
2023/08/05 06:51:18;;;;;;;;;;;15.10;99.90;;;;;;4985740;28;19922;-60
2023/08/05 06:53:45;;;;;;;;;;;15.10;99.90;;;;;;4999115;28;19928;-61
2023/08/05 06:56:13;;;;;;;;;;;15.00;99.90;;;;;;4988255;28;20012;-61
2023/08/05 06:58:40;;;;;;;;;;;14.90;99.90;;;;;;4988927;28;19926;-61
2023/08/05 07:01:07;;;;;;;;;;;14.80;99.90;;;;;;4989678;28;19972;-60
2023/08/05 07:03:36;;;;;;;;;;;14.70;99.90;;;;;;5003685;28;19951;-60
2023/08/05 07:06:03;;;;;;;;;;;14.70;99.90;;;;;;4989527;28;19921;-61
2023/08/05 07:08:29;;;;;;;;;;;14.70;99.90;;;;;;4989876;28;20000;-59
2023/08/05 07:10:56;;;;;;;;;;;14.70;99.90;;;;;;4988268;28;20008;-60
2023/08/05 07:13:23;;;;;;;;;;;14.70;99.90;;;;;;4976492;28;20439;-60
2023/08/05 07:15:50;;;;;;;;;;;14.80;99.90;;;;;;4985219;28;20323;-60
2023/08/05 07:18:17;;;;;;;;;;;14.90;99.90;;;;;;4989867;28;20408;-61
2023/08/05 07:20:44;;;;;;;;;;;15.00;99.90;;;;;;4989616;28;19968;-59
2023/08/05 07:23:10;;;;;;;;;;;15.00;99.90;;;;;;4989704;28;19926;-59
2023/08/05 07:25:37;;;;;;;;;;;15.00;99.90;;;;;;4990113;28;19925;-61
2023/08/05 07:28:04;;;;;;;;;;;15.00;99.90;;;;;;4992198;28;19976;-59
2023/08/05 07:30:31;;;;;;;;;;;15.00;99.90;;;;;;4991566;28;19929;-59
2023/08/05 07:32:57;;;;;;;;;;;15.10;99.90;;;;;;4991769;28;19922;-59
2023/08/05 07:35:28;;;;;;;;;;;15.20;99.90;;;;;;4991816;28;19922;-59
2023/08/05 07:37:56;;;;;;;;;;;15.10;99.90;;;;;;4991526;28;20360;-58
2023/08/05 07:40:22;;;;;;;;;;;15.10;99.90;;;;;;4991527;28;20041;-59
2023/08/05 07:42:50;;;;;;;;;;;15.10;99.90;;;;;;4991810;28;20137;-59
2023/08/05 07:45:18;;;;;;;;;;;15.20;99.90;;;;;;4992299;28;19977;-59
2023/08/05 07:47:45;;;;;;;;;;;15.20;99.90;;;;;;4991413;28;19945;-59
2023/08/05 07:50:14;;;;;;;;;;;15.20;99.90;;;;;;4991622;28;19926;-60
2023/08/05 07:52:41;;;;;;;;;;;15.30;99.90;;;;;;4991491;28;19921;-61
2023/08/05 07:55:08;;;;;;;;;;;15.20;99.90;;;;;;4991559;28;20682;-60
2023/08/05 07:57:35;;;;;;;;;;;15.20;99.90;;;;;;4991374;28;19945;-60
2023/08/05 08:00:03;;;;;;;;;;;15.20;99.90;;;;;;4990370;28;19926;-60
2023/08/05 08:02:31;;;;;;;;;;;15.20;99.90;;;;;;4644394;28;10000230;-60
2023/08/05 08:05:03;;;;;;;;;;;15.30;99.90;;;;;;4989121;28;20268;-60
2023/08/05 08:07:29;;;;;;;;;;;15.30;99.90;;;;;;4988210;28;19925;-59
2023/08/05 08:09:56;;;;;;;;;;;15.30;99.90;;;;;;4988555;28;20001;-61
2023/08/05 08:12:23;;;;;;;;;;;15.30;99.90;;;;;;4988446;28;20263;-60
2023/08/05 08:14:49;;;;;;;;;;;15.30;99.90;;;;;;4987798;28;20012;-61
2023/08/05 08:17:16;;;;;;;;;;;15.30;99.90;;;;;;4978426;28;19941;-57
2023/08/05 08:19:45;;;;;;;;;;;15.30;99.90;;;;;;4987542;28;19925;-58
2023/08/05 08:22:12;;;;;;;;;;;15.20;99.90;;;;;;4987897;28;19926;-59
2023/08/05 08:24:38;;;;;;;;;;;15.20;99.90;;;;;;4988540;28;19925;-59
2023/08/05 08:27:05;;;;;;;;;;;15.00;99.90;;;;;;4990320;28;19977;-58
2023/08/05 08:29:34;;;;;;;;;;;15.00;99.90;;;;;;4987968;28;19921;-59
2023/08/05 08:32:02;;;;;;;;;;;14.90;99.90;;;;;;4988243;28;19922;-59
2023/08/05 08:34:28;;;;;;;;;;;14.90;99.90;;;;;;4990845;28;20342;-60
2023/08/05 08:36:55;;;;;;;;;;;14.90;99.90;;;;;;4990573;28;19977;-60
2023/08/05 08:39:22;;;;;;;;;;;14.90;99.90;;;;;;4990360;28;19980;-60
2023/08/05 08:41:49;;;;;;;;;;;15.00;99.90;;;;;;4993978;28;20289;-59
2023/08/05 08:44:16;;;;;;;;;;;15.00;99.90;;;;;;5004246;28;19921;-56
2023/08/05 08:46:43;;;;;;;;;;;15.00;99.90;;;;;;5007197;28;20033;-59
2023/08/05 08:49:11;;;;;;;;;;;15.00;99.90;;;;;;5001786;28;20439;-57
2023/08/05 08:51:38;;;;;;;;;;;15.00;99.90;;;;;;5006546;28;20619;-56
2023/08/05 08:54:04;;;;;;;;;;;15.10;99.90;;;;;;5001047;28;19960;-59
2023/08/05 08:56:33;;;;;;;;;;;15.10;99.90;;;;;;4991500;28;19922;-60
2023/08/05 08:59:00;;;;;;;;;;;15.10;99.90;;;;;;4988838;28;19922;-58
2023/08/05 09:01:26;;;;;;;;;;;15.10;99.90;;;;;;4990176;28;20381;-56
2023/08/05 09:03:53;;;;;;;;;;;15.10;99.90;;;;;;4988732;28;19921;-56
2023/08/05 09:06:23;;;;;;;;;;;14.90;99.90;;;;;;4989216;28;20073;-56
2023/08/05 09:08:50;;;;;;;;;;;14.80;99.90;;;;;;4989397;28;19921;-58
2023/08/05 09:11:17;;;;;;;;;;;15.00;99.90;;;;;;4988575;28;19968;-57
2023/08/05 09:13:43;;;;;;;;;;;15.00;99.90;;;;;;4988755;28;19930;-58
2023/08/05 09:16:13;;;;;;;;;;;15.00;99.90;;;;;;4990232;28;19938;-57
2023/08/05 09:18:44;;;;;;;;;;;15.20;99.90;;;;;;4988978;28;20021;-58
2023/08/05 09:21:11;;;;;;;;;;;15.10;99.90;;;;;;4990101;28;19948;-59
2023/08/05 09:23:45;;;;;;;;;;;15.00;99.90;;;;;;4989237;28;20304;-58
2023/08/05 09:26:12;;;;;;;;;;;14.90;99.90;;;;;;4983083;28;19925;-56
2023/08/05 09:28:39;;;;;;;;;;;14.90;99.90;;;;;;4988758;28;19925;-58
2023/08/05 09:31:12;;;;;;;;;;;14.90;99.90;;;;;;4989602;28;19922;-57
2023/08/05 09:33:40;;;;;;;;;;;14.90;99.90;;;;;;4990031;28;20372;-57
2023/08/05 09:36:08;;;;;;;;;;;15.00;99.90;;;;;;4988669;28;20440;-55
2023/08/05 09:38:35;;;;;;;;;;;15.00;99.90;;;;;;4988374;28;19922;-60
2023/08/05 09:41:03;;;;;;;;;;;15.00;99.90;;;;;;4987737;28;20185;-57
2023/08/05 09:43:33;;;;;;;;;;;15.00;99.90;;;;;;4988469;28;19922;-58
2023/08/05 09:46:04;;;;;;;;;;;15.00;99.90;;;;;;4987679;28;20037;-58
2023/08/05 09:48:36;;;;;;;;;;;14.80;99.90;;;;;;4988341;28;19949;-60
2023/08/05 09:51:04;;;;;;;;;;;14.60;99.90;;;;;;4986670;28;19925;-58
2023/08/05 09:53:33;;;;;;;;;;;14.60;99.90;;;;;;4987971;28;19922;-59
2023/08/05 09:56:00;;;;;;;;;;;14.70;99.90;;;;;;4988742;28;19926;-58
2023/08/05 09:58:27;;;;;;;;;;;14.70;99.90;;;;;;4990048;28;19926;-58
2023/08/05 10:00:54;;;;;;;;;;;14.80;99.90;;;;;;4989141;28;19972;-57
2023/08/05 10:03:21;;;;;;;;;;;14.80;99.90;;;;;;4988406;28;20384;-58
2023/08/05 10:05:47;;;;;;;;;;;15.00;99.90;;;;;;4987564;28;19976;-56
2023/08/05 10:08:15;;;;;;;;;;;14.90;99.90;;;;;;4982126;28;20137;-59
2023/08/05 10:10:42;;;;;;;;;;;15.00;99.90;;;;;;4988160;28;19922;-58
2023/08/05 10:13:20;;;;;;;;;;;15.00;99.90;;;;;;4988211;28;20368;-58
2023/08/05 10:15:50;;;;;;;;;;;15.10;99.90;;;;;;4987458;28;19937;-57
2023/08/05 10:18:17;;;;;;;;;;;15.30;99.90;;;;;;4989309;28;19945;-58
2023/08/05 10:20:48;;;;;;;;;;;15.60;99.90;;;;;;4988006;28;19921;-57
2023/08/05 10:23:14;;;;;;;;;;;15.70;99.90;;;;;;4985630;28;19941;-58
2023/08/05 10:25:42;;;;;;;;;;;15.80;99.90;;;;;;4643355;28;10000424;-58
2023/08/05 10:28:09;;;;;;;;;;;15.80;99.90;;;;;;4985179;28;19940;-58
2023/08/05 10:30:42;;;;;;;;;;;15.80;99.90;;;;;;4988942;28;20440;-58
2023/08/05 10:33:09;;;;;;;;;;;15.90;99.90;;;;;;4989193;28;19972;-59
2023/08/05 10:35:39;;;;;;;;;;;15.90;99.90;;;;;;4989217;28;19973;-59
2023/08/05 10:38:16;;;;;;;;;;;15.90;99.90;;;;;;4988948;28;19922;-58
2023/08/05 10:40:43;;;;;;;;;;;15.80;99.90;;;;;;4974294;28;19922;-59
2023/08/05 10:43:10;;;;;;;;;;;15.80;99.90;;;;;;4988642;28;19976;-59
2023/08/05 10:45:43;;;;;;;;;;;15.70;99.90;;;;;;4987876;28;19933;-59
2023/08/05 10:48:10;;;;;;;;;;;15.70;99.90;;;;;;4988857;28;19922;-59
2023/08/05 10:50:37;;;;;;;;;;;15.80;99.90;;;;;;4989156;28;19921;-58
2023/08/05 10:53:08;;;;;;;;;;;15.70;99.90;;;;;;4988658;28;19945;-59
2023/08/05 10:56:04;;;;;;;;;;;15.80;99.90;;;;;;4989485;28;19922;-59
2023/08/05 10:58:30;;;;;;;;;;;15.90;99.90;;;;;;4983184;28;20329;-58
2023/08/05 11:00:58;;;;;;;;;;;16.00;99.90;;;;;;4987856;28;20045;-59
2023/08/05 11:03:31;;;;;;;;;;;16.10;99.90;;;;;;4988624;28;20287;-59
2023/08/05 11:06:01;;;;;;;;;;;16.10;99.90;;;;;;4989022;28;19928;-59
2023/08/05 11:08:28;;;;;;;;;;;16.40;99.90;;;;;;4989212;28;19928;-57
2023/08/05 11:10:55;;;;;;;;;;;16.60;99.90;;;;;;4989107;28;19922;-58
2023/08/05 11:13:21;;;;;;;;;;;16.70;99.90;;;;;;4988629;28;19921;-57
2023/08/05 11:16:03;;;;;;;;;;;16.80;99.90;;;;;;4989041;28;19980;-58
2023/08/05 11:18:31;;;;;;;;;;;17.00;99.90;;;;;;4988622;28;19928;-58
2023/08/05 11:20:58;;;;;;;;;;;17.10;99.90;;;;;;4989084;28;19992;-59
2023/08/05 11:23:24;;;;;;;;;;;17.20;99.90;;;;;;4988282;28;20380;-59
2023/08/05 11:25:51;;;;;;;;;;;17.30;99.90;;;;;;4988916;28;19922;-56
2023/08/05 11:28:18;;;;;;;;;;;17.30;99.90;;;;;;4988518;28;20384;-59
2023/08/05 11:30:45;;;;;;;;;;;17.40;99.90;;;;;;4988535;28;19922;-58
2023/08/05 11:33:12;;;;;;;;;;;17.50;99.90;;;;;;4988200;28;20389;-58
2023/08/05 11:35:45;;;;;;;;;;;17.50;99.90;;;;;;4988442;28;20395;-59
2023/08/05 11:38:18;;;;;;;;;;;17.50;99.90;;;;;;4988563;28;20254;-59
2023/08/05 11:40:45;;;;;;;;;;;17.50;99.90;;;;;;4987236;28;20219;-59
2023/08/05 11:43:13;;;;;;;;;;;17.50;99.90;;;;;;4992041;28;19932;-58
2023/08/05 11:45:40;;;;;;;;;;;17.50;99.90;;;;;;4991850;28;19922;-59
2023/08/05 11:48:27;;;;;;;;;;;17.50;99.90;;;;;;5007530;28;19922;-59
2023/08/05 11:51:01;;;;;;;;;;;17.50;99.90;;;;;;4990074;28;19921;-58
2023/08/05 11:53:28;;;;;;;;;;;17.60;99.90;;;;;;4991905;28;19921;-56
2023/08/05 11:55:54;;;;;;;;;;;17.60;99.90;;;;;;4991592;28;19983;-58
2023/08/05 11:58:23;;;;;;;;;;;17.60;99.90;;;;;;4991876;28;19992;-59
2023/08/05 12:00:50;;;;;;;;;;;17.60;99.90;;;;;;4991729;28;19926;-59
2023/08/05 12:03:16;;;;;;;;;;;17.50;99.90;;;;;;4991201;28;20431;-59
2023/08/05 12:05:43;;;;;;;;;;;17.40;99.90;;;;;;4991448;28;19926;-59
2023/08/05 12:08:10;;;;;;;;;;;17.30;99.90;;;;;;4991553;28;20381;-59
2023/08/05 12:10:37;;;;;;;;;;;17.30;99.90;;;;;;4991130;28;19921;-59
2023/08/05 12:13:05;;;;;;;;;;;17.30;99.90;;;;;;4991634;28;19922;-59
2023/08/05 12:15:31;;;;;;;;;;;17.20;99.90;;;;;;4991355;28;20013;-60
2023/08/05 12:18:02;;;;;;;;;;;17.10;99.90;;;;;;4990947;28;19922;-59
2023/08/05 12:20:30;;;;;;;;;;;17.20;99.90;;;;;;4990980;28;19922;-59
2023/08/05 12:22:58;;;;;;;;;;;17.30;99.90;;;;;;4991710;28;20262;-60
2023/08/05 12:25:25;;;;;;;;;;;17.20;99.90;;;;;;4990872;28;20202;-60
2023/08/05 12:27:52;;;;;;;;;;;17.20;99.90;;;;;;4991379;28;19929;-59
2023/08/05 12:30:19;;;;;;;;;;;17.20;99.90;;;;;;4643722;28;10000642;-59
2023/08/05 12:32:45;;;;;;;;;;;17.20;99.90;;;;;;4988527;28;19933;-59
2023/08/05 12:35:12;;;;;;;;;;;17.30;99.90;;;;;;4988187;28;19933;-58
2023/08/05 12:37:39;;;;;;;;;;;17.20;99.90;;;;;;4988304;28;19925;-58
2023/08/05 12:40:10;;;;;;;;;;;17.20;99.90;;;;;;4988209;28;19921;-65
2023/08/05 12:42:37;;;;;;;;;;;17.20;99.90;;;;;;4987688;28;20443;-59
2023/08/05 12:45:04;;;;;;;;;;;17.20;99.90;;;;;;4988340;28;19925;-59
2023/08/05 12:47:35;;;;;;;;;;;17.10;99.90;;;;;;4986886;28;19922;-61
2023/08/05 12:50:02;;;;;;;;;;;17.00;99.90;;;;;;4988036;28;19925;-61
2023/08/05 12:52:29;;;;;;;;;;;17.10;99.90;;;;;;4986776;28;19980;-60
2023/08/05 12:54:56;;;;;;;;;;;17.10;99.90;;;;;;4988113;28;19932;-59
2023/08/05 12:57:23;;;;;;;;;;;17.20;99.90;;;;;;4987639;28;19922;-60
2023/08/05 12:59:49;;;;;;;;;;;17.10;99.90;;;;;;5003083;28;19987;-60
2023/08/05 13:02:23;;;;;;;;;;;17.10;99.90;;;;;;4985850;28;19937;-59
2023/08/05 13:04:51;;;;;;;;;;;17.10;99.90;;;;;;4988016;28;20016;-59
2023/08/05 13:07:19;;;;;;;;;;;17.00;99.90;;;;;;4987328;28;19925;-60
2023/08/05 13:09:46;;;;;;;;;;;17.10;99.90;;;;;;4986661;28;19988;-60
2023/08/05 13:12:13;;;;;;;;;;;17.10;99.90;;;;;;4986910;28;20400;-60
2023/08/05 13:14:40;;;;;;;;;;;17.10;99.90;;;;;;4987619;28;19933;-60
2023/08/05 13:17:07;;;;;;;;;;;17.10;99.90;;;;;;4987198;28;19925;-59
2023/08/05 13:19:34;;;;;;;;;;;17.10;99.90;;;;;;4975212;28;20435;-59
2023/08/05 13:22:01;;;;;;;;;;;17.00;99.90;;;;;;4986984;28;20358;-61
2023/08/05 13:24:29;;;;;;;;;;;17.00;99.90;;;;;;4987503;28;19965;-60
2023/08/05 13:26:55;;;;;;;;;;;17.00;99.90;;;;;;4986892;28;20031;-60
2023/08/05 13:29:22;;;;;;;;;;;16.90;99.90;;;;;;4993519;28;19922;-60
2023/08/05 13:31:49;;;;;;;;;;;16.90;99.90;;;;;;4986762;28;19925;-58
2023/08/05 13:34:16;;;;;;;;;;;16.90;99.90;;;;;;4994722;28;20507;-59
2023/08/05 13:36:43;;;;;;;;;;;16.90;99.90;;;;;;5002784;28;19929;-60
2023/08/05 13:39:10;;;;;;;;;;;16.90;99.90;;;;;;4993117;28;19938;-60
2023/08/05 13:41:36;;;;;;;;;;;16.80;99.90;;;;;;4999089;28;20353;-59
2023/08/05 13:44:04;;;;;;;;;;;16.80;99.90;;;;;;4990037;28;20228;-59
2023/08/05 13:46:30;;;;;;;;;;;16.80;99.90;;;;;;4989106;28;20073;-59
2023/08/05 13:48:57;;;;;;;;;;;16.70;99.90;;;;;;4988577;28;19926;-60
2023/08/05 13:51:24;;;;;;;;;;;16.70;99.90;;;;;;4993332;28;19933;-60
2023/08/05 13:53:51;;;;;;;;;;;16.70;99.90;;;;;;4989870;28;19953;-60
2023/08/05 13:56:18;;;;;;;;;;;16.70;99.90;;;;;;4986584;28;20361;-60
2023/08/05 13:58:44;;;;;;;;;;;16.70;99.90;;;;;;4995323;28;19926;-60
2023/08/05 14:01:12;;;;;;;;;;;16.70;99.90;;;;;;5001219;28;20007;-60
2023/08/05 14:03:38;;;;;;;;;;;16.70;99.90;;;;;;4992890;28;20369;-60
2023/08/05 14:06:05;;;;;;;;;;;16.70;99.90;;;;;;4985956;28;19930;-61
2023/08/05 14:08:32;;;;;;;;;;;16.70;99.90;;;;;;4985793;28;19937;-61
2023/08/05 14:10:59;;;;;;;;;;;16.70;99.90;;;;;;4986131;28;19930;-60
2023/08/05 14:13:25;;;;;;;;;;;16.70;99.90;;;;;;4989470;28;19925;-61
2023/08/05 14:15:52;;;;;;;;;;;16.80;99.90;;;;;;4986661;28;19930;-61
2023/08/05 14:18:20;;;;;;;;;;;16.70;99.90;;;;;;4999713;28;19928;-61